Аэропорт: Якутск. Якутск

ICAO: UEEE

METAR:
2018/09/23 11:00
UEEE 231100Z 30003MPS CAVOK 06/M00 Q1013 R23L/290155 NOSIG RMK QFE751
METAR:
2018/09/23 09:22
TAF UEEE 230800Z 2309/2415 31006G12MPS 9999 SCT030CB BKN100 
      TEMPO 2309/2311 -SHRA